Time;durP1;ratioP1;P1;durP2;ratioP2;P2;SDS_P1;SDS_P2;PMS_P1;PMS_P2;Temp;Humidity;BMP_temperature;BMP_pressure;BME280_temperature;BME280_humidity;BME280_pressure;Samples;Min_cycle;Max_cycle;Signal;HPM_P1;HPM_P2
2021/07/29 00:01:46;;;;;;;3.63;3.33;;;19.40;99.90;;;;;;5070561;28;20177;-60
2021/07/29 00:04:11;;;;;;;3.63;3.33;;;19.30;99.90;;;;;;5070414;28;20801;-60
2021/07/29 00:06:37;;;;;;;3.70;3.40;;;19.30;99.90;;;;;;5070595;28;20696;-60
2021/07/29 00:09:03;;;;;;;5.13;4.30;;;19.30;99.90;;;;;;5069678;28;20190;-60
2021/07/29 00:11:28;;;;;;;4.23;3.30;;;19.10;99.90;;;;;;5070314;28;20162;-60
2021/07/29 00:13:57;;;;;;;3.83;3.53;;;19.10;99.90;;;;;;5070218;28;20729;-60
2021/07/29 00:16:26;;;;;;;4.20;3.27;;;19.10;99.90;;;;;;5069817;28;20182;-60
2021/07/29 00:19:03;;;;;;;4.20;3.33;;;19.20;99.90;;;;;;5068988;28;20415;-60
2021/07/29 00:21:30;;;;;;;4.03;3.73;;;19.30;99.90;;;;;;5070186;28;20392;-60
2021/07/29 00:23:55;;;;;;;5.73;4.10;;;19.20;99.90;;;;;;5051960;28;20409;-60
2021/07/29 00:26:21;;;;;;;3.10;2.90;;;19.20;99.90;;;;;;5049803;28;20425;-60
2021/07/29 00:28:46;;;;;;;4.40;4.03;;;19.30;99.90;;;;;;5049749;28;20655;-60
2021/07/29 00:31:12;;;;;;;3.97;3.67;;;19.30;99.90;;;;;;5049767;28;20178;-60
2021/07/29 00:33:38;;;;;;;3.80;3.50;;;19.20;99.90;;;;;;5049681;28;20194;-60
2021/07/29 00:36:04;;;;;;;5.13;4.23;;;19.10;99.90;;;;;;5049655;28;20673;-60
2021/07/29 00:38:30;;;;;;;3.80;3.30;;;18.90;99.90;;;;;;5055218;28;20269;-60
2021/07/29 00:40:55;;;;;;;3.70;3.40;;;18.90;99.90;;;;;;5071116;28;20397;-60
2021/07/29 00:43:21;;;;;;;4.30;3.90;;;18.90;99.90;;;;;;5070120;28;20202;-60
2021/07/29 00:45:48;;;;;;;4.70;3.70;;;18.90;99.90;;;;;;5069387;28;20205;-56
2021/07/29 00:48:14;;;;;;;3.40;3.10;;;18.80;99.90;;;;;;5069373;28;20166;-60
2021/07/29 00:50:40;;;;;;;3.60;3.30;;;18.70;99.90;;;;;;5070101;28;20970;-60
2021/07/29 00:53:08;;;;;;;3.40;3.10;;;18.70;99.90;;;;;;5058563;28;20900;-60
2021/07/29 00:55:34;;;;;;;5.27;3.70;;;18.60;99.90;;;;;;5049401;28;20401;-60
2021/07/29 00:57:59;;;;;;;6.13;3.83;;;18.50;99.90;;;;;;5049519;28;20408;-60
2021/07/29 01:00:25;;;;;;;5.90;3.83;;;18.50;99.90;;;;;;5049146;28;20407;-60
2021/07/29 01:02:53;;;;;;;4.97;3.80;;;18.40;99.90;;;;;;5049700;28;20171;-61
2021/07/29 01:05:20;;;;;;;4.17;3.77;;;18.30;99.90;;;;;;5039064;28;20214;-60
2021/07/29 01:07:46;;;;;;;4.27;3.87;;;18.30;99.90;;;;;;5056423;23;20478;-61
2021/07/29 01:10:11;;;;;;;4.30;3.50;;;18.30;99.90;;;;;;5035533;28;20406;-62
2021/07/29 01:12:37;;;;;;;3.80;3.50;;;18.40;99.90;;;;;;5036111;28;20206;-62
2021/07/29 01:15:04;;;;;;;4.33;3.93;;;18.40;99.90;;;;;;5036119;28;20159;-62
2021/07/29 01:17:32;;;;;;;3.77;3.47;;;18.40;99.90;;;;;;5036225;28;20287;-60
2021/07/29 01:19:58;;;;;;;4.53;4.13;;;18.40;99.90;;;;;;5036101;28;20409;-60
2021/07/29 01:22:31;;;;;;;3.73;3.43;;;18.50;99.90;;;;;;5035813;28;20406;-62
2021/07/29 01:24:57;;;;;;;6.60;3.37;;;18.50;99.90;;;;;;5035990;28;20393;-62
2021/07/29 01:27:23;;;;;;;5.50;3.80;;;18.50;99.90;;;;;;5035486;28;20781;-60
2021/07/29 01:29:48;;;;;;;4.00;3.70;;;18.50;99.90;;;;;;5038107;28;20171;-61
2021/07/29 01:32:14;;;;;;;4.47;4.07;;;18.60;99.90;;;;;;5035905;28;20254;-59
2021/07/29 01:34:40;;;;;;;3.90;3.50;;;18.50;99.90;;;;;;5035972;28;20171;-60
2021/07/29 01:37:06;;;;;;;3.80;3.50;;;18.40;99.90;;;;;;5035402;28;20202;-60
2021/07/29 01:39:32;;;;;;;5.00;3.90;;;18.50;99.90;;;;;;5034774;28;20403;-56
2021/07/29 01:41:57;;;;;;;3.53;3.23;;;18.60;99.90;;;;;;5035546;28;20285;-58
2021/07/29 01:44:23;;;;;;;3.73;3.43;;;18.60;99.90;;;;;;5035465;28;20171;-61
2021/07/29 01:46:48;;;;;;;3.70;3.20;;;18.50;99.90;;;;;;5035163;28;20187;-61
2021/07/29 01:49:21;;;;;;;4.10;3.80;;;18.40;99.90;;;;;;5035372;28;20172;-61
2021/07/29 01:51:47;;;;;;;4.03;3.63;;;18.40;99.90;;;;;;5035379;28;20155;-59
2021/07/29 01:54:13;;;;;;;3.23;2.93;;;18.40;99.90;;;;;;5034703;28;20544;-61
2021/07/29 01:56:41;;;;;;;4.70;4.20;;;18.40;99.90;;;;;;5034740;28;20494;-62
2021/07/29 01:59:06;;;;;;;4.00;3.70;;;18.40;99.90;;;;;;5034856;28;20526;-61
2021/07/29 02:01:32;;;;;;;4.20;3.73;;;18.50;99.90;;;;;;5034713;28;20403;-61
2021/07/29 02:03:58;;;;;;;4.93;3.80;;;18.60;99.90;;;;;;5034779;28;20641;-61
2021/07/29 02:06:23;;;;;;;3.87;3.57;;;18.70;99.90;;;;;;5034819;28;20199;-61
2021/07/29 02:08:49;;;;;;;4.40;4.00;;;18.70;99.90;;;;;;5034140;28;20225;-61
2021/07/29 02:11:15;;;;;;;4.27;3.97;;;18.60;99.90;;;;;;5034770;28;20171;-61
2021/07/29 02:13:40;;;;;;;4.27;3.97;;;18.60;99.90;;;;;;5034528;28;20199;-60
2021/07/29 02:16:13;;;;;;;4.53;4.13;;;18.60;99.90;;;;;;5033448;28;20168;-61
2021/07/29 02:18:39;;;;;;;5.00;3.90;;;18.60;99.90;;;;;;5034668;28;20327;-62
2021/07/29 02:21:09;;;;;;;4.93;4.43;;;18.60;99.90;;;;;;5034628;28;20525;-62
2021/07/29 02:23:35;;;;;;;4.50;4.10;;;18.60;99.90;;;;;;5033780;28;20258;-62
2021/07/29 02:26:01;;;;;;;4.00;3.70;;;18.30;99.90;;;;;;5034508;28;20601;-62
2021/07/29 02:28:26;;;;;;;4.93;3.90;;;18.20;99.90;;;;;;5034669;28;20438;-62
2021/07/29 02:30:52;;;;;;;4.40;4.00;;;18.10;99.90;;;;;;5034262;28;20167;-62
2021/07/29 02:33:17;;;;;;;4.00;3.47;;;18.00;99.90;;;;;;5034988;28;20199;-61
2021/07/29 02:35:48;;;;;;;5.00;4.50;;;18.20;99.90;;;;;;5035004;28;20231;-62
2021/07/29 02:38:14;;;;;;;5.30;4.30;;;18.00;99.90;;;;;;5033309;28;20175;-62
2021/07/29 02:40:40;;;;;;;4.03;3.63;;;18.10;99.90;;;;;;5033597;28;20406;-59
2021/07/29 02:43:05;;;;;;;4.20;3.80;;;18.30;99.90;;;;;;5034699;28;20225;-60
2021/07/29 02:45:31;;;;;;;3.90;3.50;;;18.40;99.90;;;;;;5034684;28;20221;-61
2021/07/29 02:47:57;;;;;;;4.53;4.13;;;18.40;99.90;;;;;;5034404;28;20660;-58
2021/07/29 02:50:22;;;;;;;4.53;4.13;;;18.40;99.90;;;;;;5034822;28;20167;-62
2021/07/29 02:52:48;;;;;;;4.80;4.40;;;18.40;99.90;;;;;;5034275;28;20269;-62
2021/07/29 02:55:14;;;;;;;4.33;3.93;;;18.40;99.90;;;;;;5032512;28;20170;-62
2021/07/29 02:57:39;;;;;;;5.00;4.00;;;18.40;99.90;;;;;;5033591;28;20660;-62
2021/07/29 03:00:06;;;;;;;4.63;4.23;;;18.40;99.90;;;;;;5033803;28;20174;-62
2021/07/29 03:02:31;;;;;;;5.80;4.13;;;18.30;99.90;;;;;;5033639;28;20186;-62
2021/07/29 03:04:57;;;;;;;4.40;4.00;;;18.30;99.90;;;;;;5033558;28;20410;-60
2021/07/29 03:07:22;;;;;;;4.63;4.20;;;18.40;99.90;;;;;;5033351;28;20285;-61
2021/07/29 03:09:48;;;;;;;4.80;4.40;;;18.30;99.90;;;;;;5033105;28;20245;-62
2021/07/29 03:12:14;;;;;;;5.47;4.43;;;18.30;99.90;;;;;;5033493;28;20164;-60
2021/07/29 03:14:40;;;;;;;4.90;4.50;;;18.30;99.90;;;;;;5033585;28;20690;-61
2021/07/29 03:17:06;;;;;;;4.83;4.43;;;18.30;99.90;;;;;;5033232;28;20778;-60
2021/07/29 03:19:31;;;;;;;5.70;4.47;;;18.30;99.90;;;;;;5033604;28;20429;-60
2021/07/29 03:21:57;;;;;;;5.90;5.10;;;18.30;99.90;;;;;;5035571;28;20171;-60
2021/07/29 03:24:22;;;;;;;4.70;4.30;;;18.30;99.90;;;;;;5033218;28;20163;-61
2021/07/29 03:26:48;;;;;;;4.47;4.07;;;18.30;99.90;;;;;;5033020;28;20191;-60
2021/07/29 03:29:14;;;;;;;4.80;4.40;;;18.20;99.90;;;;;;5032768;28;20562;-61
2021/07/29 03:31:40;;;;;;;4.97;4.00;;;18.30;99.90;;;;;;5029314;28;20172;-61
2021/07/29 03:34:06;;;;;;;4.83;4.40;;;18.20;99.90;;;;;;5014698;28;20447;-59
2021/07/29 03:36:31;;;;;;;4.00;3.70;;;18.20;99.90;;;;;;5014974;28;20878;-60
2021/07/29 03:38:58;;;;;;;5.57;5.00;;;18.30;99.90;;;;;;5012702;28;20168;-61
2021/07/29 03:41:24;;;;;;;4.70;4.17;;;18.30;99.90;;;;;;5013467;28;20164;-60
2021/07/29 03:43:49;;;;;;;4.40;4.10;;;18.30;99.90;;;;;;5013702;28;20416;-59
2021/07/29 03:46:15;;;;;;;5.27;4.73;;;18.20;99.90;;;;;;5013162;28;20183;-61
2021/07/29 03:48:40;;;;;;;5.13;4.63;;;18.20;99.90;;;;;;5013638;28;20511;-61
2021/07/29 03:51:11;;;;;;;5.57;5.07;;;18.10;99.90;;;;;;5013111;28;20168;-60
2021/07/29 03:53:37;;;;;;;6.03;5.07;;;18.20;99.90;;;;;;5027399;28;20193;-60
2021/07/29 03:56:03;;;;;;;5.80;4.90;;;18.20;99.90;;;;;;5032964;28;20414;-60
2021/07/29 03:58:28;;;;;;;4.87;4.47;;;18.20;99.90;;;;;;5032750;28;20298;-62
2021/07/29 04:00:56;;;;;;;5.70;4.90;;;18.20;99.90;;;;;;5033026;28;20273;-61
2021/07/29 04:03:22;;;;;;;4.47;4.07;;;18.10;99.90;;;;;;5032876;28;20525;-61
2021/07/29 04:05:49;;;;;;;5.17;4.67;;;18.10;99.90;;;;;;5032844;28;20421;-59
2021/07/29 04:08:14;;;;;;;4.80;4.30;;;18.20;99.90;;;;;;5032354;28;20278;-61
2021/07/29 04:10:40;;;;;;;4.30;3.90;;;18.30;99.90;;;;;;5032413;28;20449;-61
2021/07/29 04:13:05;;;;;;;6.20;5.07;;;18.30;99.90;;;;;;5032539;28;20222;-61
2021/07/29 04:15:31;;;;;;;4.77;4.37;;;18.30;99.90;;;;;;5032796;28;20175;-61
2021/07/29 04:17:56;;;;;;;5.10;4.60;;;18.30;99.90;;;;;;5032554;28;20187;-61
2021/07/29 04:20:22;;;;;;;5.00;4.60;;;18.30;99.90;;;;;;5032553;28;20163;-61
2021/07/29 04:22:47;;;;;;;5.30;4.70;;;18.40;99.90;;;;;;5032742;28;20171;-60
2021/07/29 04:25:13;;;;;;;6.00;4.50;;;18.40;99.90;;;;;;5031959;28;20168;-61
2021/07/29 04:27:39;;;;;;;4.80;4.40;;;18.50;99.90;;;;;;5032294;28;20261;-60
2021/07/29 04:30:05;;;;;;;6.40;4.30;;;18.50;99.90;;;;;;5033028;28;20203;-60
2021/07/29 04:32:35;;;;;;;7.00;5.63;;;18.40;99.90;;;;;;5032887;28;20195;-58
2021/07/29 04:35:00;;;;;;;5.70;4.90;;;18.30;99.90;;;;;;5032706;28;20452;-61
2021/07/29 04:37:26;;;;;;;5.57;4.97;;;18.30;99.90;;;;;;5032533;28;20461;-60
2021/07/29 04:39:51;;;;;;;4.33;3.93;;;18.40;99.90;;;;;;5033524;28;20201;-61
2021/07/29 04:42:17;;;;;;;5.23;4.73;;;18.50;99.90;;;;;;5036262;28;20172;-61
2021/07/29 04:44:42;;;;;;;5.00;4.60;;;18.50;99.90;;;;;;5036027;28;20171;-59
2021/07/29 04:47:09;;;;;;;4.10;3.80;;;18.50;99.90;;;;;;5036075;28;20194;-61
2021/07/29 04:49:34;;;;;;;4.73;4.33;;;18.50;99.90;;;;;;5036277;28;20207;-61
2021/07/29 04:52:00;;;;;;;6.70;5.00;;;18.60;99.90;;;;;;5036121;28;20433;-56
2021/07/29 04:54:26;;;;;;;4.47;4.07;;;18.70;99.90;;;;;;5035595;28;20456;-60
2021/07/29 04:56:51;;;;;;;5.53;4.30;;;18.60;99.90;;;;;;5036016;28;20183;-59
2021/07/29 04:59:19;;;;;;;4.47;4.07;;;18.60;99.90;;;;;;5034753;28;20167;-59
2021/07/29 05:01:45;;;;;;;6.53;4.93;;;18.70;99.90;;;;;;5035938;28;20632;-60
2021/07/29 05:04:11;;;;;;;5.43;3.80;;;18.70;99.90;;;;;;5036035;28;20456;-59
2021/07/29 05:06:37;;;;;;;5.87;4.97;;;18.60;99.90;;;;;;5035576;28;20559;-60
2021/07/29 05:09:03;;;;;;;4.33;4.00;;;18.70;99.90;;;;;;5035382;28;20509;-61
2021/07/29 05:11:29;;;;;;;5.63;4.50;;;18.70;99.90;;;;;;5035902;28;20422;-60
2021/07/29 05:13:55;;;;;;;4.13;3.83;;;18.80;99.90;;;;;;5035896;28;20496;-57
2021/07/29 05:16:20;;;;;;;4.70;4.23;;;18.70;99.90;;;;;;5034276;28;20951;-61
2021/07/29 05:18:46;;;;;;;4.40;4.03;;;18.70;99.90;;;;;;5035775;28;20538;-60
2021/07/29 05:21:11;;;;;;;4.60;4.00;;;18.70;99.90;;;;;;5035825;28;20172;-58
2021/07/29 05:23:37;;;;;;;5.00;4.43;;;18.80;99.90;;;;;;5035360;28;20210;-59
2021/07/29 05:26:03;;;;;;;4.47;4.10;;;18.70;99.90;;;;;;5034989;28;20163;-56
2021/07/29 05:28:29;;;;;;;4.43;3.80;;;18.90;99.90;;;;;;5035518;28;20172;-59
2021/07/29 05:30:54;;;;;;;4.90;4.30;;;19.00;99.90;;;;;;5037985;28;20167;-60
2021/07/29 05:33:20;;;;;;;4.67;4.27;;;19.10;99.90;;;;;;5035050;28;20199;-60
2021/07/29 05:35:45;;;;;;;6.23;3.87;;;19.20;99.90;;;;;;5035425;28;20163;-58
2021/07/29 05:38:12;;;;;;;8.70;4.13;;;19.20;99.90;;;;;;5034741;28;20183;-60
2021/07/29 05:40:37;;;;;;;4.80;4.00;;;19.30;99.90;;;;;;5034999;28;20171;-61
2021/07/29 05:43:03;;;;;;;4.07;3.67;;;19.30;99.90;;;;;;5035207;28;20456;-60
2021/07/29 05:45:29;;;;;;;4.10;3.73;;;19.40;99.90;;;;;;5034948;28;20194;-61
2021/07/29 05:47:55;;;;;;;3.70;3.40;;;19.50;99.90;;;;;;5034772;28;20191;-61
2021/07/29 05:50:21;;;;;;;3.90;3.60;;;19.80;99.90;;;;;;5034761;28;20171;-59
2021/07/29 05:52:47;;;;;;;6.13;3.60;;;20.00;99.90;;;;;;5034653;28;20454;-63
2021/07/29 05:55:13;;;;;;;4.60;3.53;;;20.10;99.90;;;;;;5034373;28;20776;-61
2021/07/29 05:57:39;;;;;;;5.60;3.50;;;20.20;99.90;;;;;;5034479;28;20421;-61
2021/07/29 06:00:05;;;;;;;9.47;3.63;;;20.30;99.90;;;;;;5034589;28;20655;-60
2021/07/29 06:02:30;;;;;;;3.90;3.30;;;20.40;99.90;;;;;;5034295;28;20275;-61
2021/07/29 06:04:56;;;;;;;3.63;3.07;;;20.40;99.90;;;;;;5035052;28;20932;-60
2021/07/29 06:07:21;;;;;;;3.70;3.13;;;20.60;99.90;;;;;;5034408;28;20222;-61
2021/07/29 06:09:47;;;;;;;4.00;3.70;;;20.60;99.90;;;;;;5034091;28;20163;-61
2021/07/29 06:12:13;;;;;;;3.53;3.23;;;20.40;99.90;;;;;;5034510;28;20170;-59
2021/07/29 06:14:39;;;;;;;4.50;3.67;;;20.20;99.90;;;;;;5034225;28;20732;-61
2021/07/29 06:17:05;;;;;;;4.37;3.67;;;20.20;99.90;;;;;;5034361;28;20318;-59
2021/07/29 06:19:33;;;;;;;3.40;3.10;;;20.50;99.90;;;;;;5034376;28;20487;-60
2021/07/29 06:22:00;;;;;;;3.37;3.07;;;20.60;99.90;;;;;;5033577;28;20163;-60
2021/07/29 06:24:27;;;;;;;3.30;3.00;;;20.80;99.90;;;;;;5029227;28;20418;-60
2021/07/29 06:26:53;;;;;;;3.63;3.33;;;20.80;99.90;;;;;;5014676;28;20414;-61
2021/07/29 06:29:20;;;;;;;3.30;3.00;;;20.90;99.90;;;;;;5014441;28;20308;-61
2021/07/29 06:31:46;;;;;;;7.97;4.60;;;20.90;99.90;;;;;;5014733;28;20501;-60
2021/07/29 06:34:12;;;;;;;5.90;3.47;;;21.10;99.90;;;;;;5014263;28;20515;-60
2021/07/29 06:36:37;;;;;;;3.50;3.20;;;21.20;99.90;;;;;;5014474;28;20998;-61
2021/07/29 06:39:03;;;;;;;5.70;3.27;;;21.30;99.90;;;;;;5013946;28;20168;-61
2021/07/29 06:41:29;;;;;;;3.37;3.07;;;21.40;99.90;;;;;;5014115;28;20247;-61
2021/07/29 06:43:55;;;;;;;5.67;3.40;;;21.30;99.90;;;;;;5014609;28;20833;-61
2021/07/29 06:46:21;;;;;;;5.03;3.10;;;21.20;99.90;;;;;;5014340;28;20326;-58
2021/07/29 06:48:48;;;;;;;3.20;2.90;;;21.20;99.90;;;;;;5014727;28;20207;-61
2021/07/29 06:51:14;;;;;;;4.03;3.17;;;21.40;99.90;;;;;;5014137;28;20403;-62
2021/07/29 06:53:39;;;;;;;4.13;3.20;;;21.50;99.90;;;;;;5029252;28;20600;-61
2021/07/29 06:56:06;;;;;;;3.67;2.90;;;21.20;99.90;;;;;;5033500;28;20311;-61
2021/07/29 06:58:32;;;;;;;4.60;3.90;;;21.20;99.90;;;;;;5033533;28;20163;-60
2021/07/29 07:01:05;;;;;;;5.03;3.23;;;21.50;99.90;;;;;;5033627;28;20403;-60
2021/07/29 07:03:32;;;;;;;4.13;3.10;;;21.50;99.90;;;;;;5033460;28;20405;-61
2021/07/29 07:06:01;;;;;;;4.00;3.70;;;21.70;99.90;;;;;;5033762;28;20422;-63
2021/07/29 07:08:27;;;;;;;4.30;3.63;;;21.50;99.90;;;;;;5069241;23;20575;-61
2021/07/29 07:10:53;;;;;;;3.93;3.63;;;21.40;99.90;;;;;;5053194;28;20459;-62
2021/07/29 07:13:18;;;;;;;3.10;2.80;;;21.40;99.90;;;;;;5053396;28;20183;-62
2021/07/29 07:15:44;;;;;;;3.27;2.87;;;21.60;99.90;;;;;;5053514;28;20667;-61
2021/07/29 07:18:10;;;;;;;3.40;3.10;;;21.60;99.90;;;;;;5065289;28;20604;-62
2021/07/29 07:20:36;;;;;;;5.77;3.47;;;21.70;99.90;;;;;;5071940;28;20254;-61
2021/07/29 07:23:01;;;;;;;2.90;2.70;;;21.70;99.90;;;;;;5063350;28;20179;-62
2021/07/29 07:25:27;;;;;;;5.07;3.53;;;21.70;99.90;;;;;;5052754;28;20401;-59
2021/07/29 07:27:53;;;;;;;6.40;3.63;;;21.70;99.90;;;;;;5053280;28;20182;-62
2021/07/29 07:30:19;;;;;;;4.47;3.10;;;21.70;99.90;;;;;;5054738;28;20200;-63
2021/07/29 07:32:44;;;;;;;3.33;2.90;;;22.10;99.90;;;;;;5075027;28;20443;-62
2021/07/29 07:35:10;;;;;;;4.10;3.20;;;22.10;99.90;;;;;;5073315;28;20162;-62
2021/07/29 07:37:36;;;;;;;3.37;3.07;;;21.90;99.90;;;;;;5073152;28;20186;-61
2021/07/29 07:40:02;;;;;;;6.83;3.80;;;22.00;99.90;;;;;;5072218;28;20174;-62
2021/07/29 07:42:28;;;;;;;3.97;3.37;;;21.90;99.90;;;;;;5072935;28;20166;-61
2021/07/29 07:44:56;;;;;;;3.93;3.17;;;21.90;99.90;;;;;;5073065;28;20411;-60
2021/07/29 07:47:22;;;;;;;7.63;3.83;;;22.20;99.90;;;;;;5073196;28;20232;-61
2021/07/29 07:49:48;;;;;;;3.43;3.00;;;22.40;99.90;;;;;;5072838;28;20404;-61
2021/07/29 07:52:13;;;;;;;5.10;3.40;;;22.80;99.90;;;;;;5069594;28;20602;-61
2021/07/29 07:54:39;;;;;;;4.13;3.63;;;22.90;99.90;;;;;;5052218;28;20241;-63
2021/07/29 07:57:06;;;;;;;4.63;3.80;;;23.10;99.90;;;;;;5053044;28;20189;-62
2021/07/29 07:59:38;;;;;;;5.50;4.00;;;23.00;99.90;;;;;;5052730;28;20173;-62
2021/07/29 08:02:04;;;;;;;5.30;3.63;;;22.80;99.90;;;;;;5052839;28;20827;-62
2021/07/29 08:04:30;;;;;;;3.37;2.93;;;22.80;99.90;;;;;;5052663;28;20471;-59
2021/07/29 08:06:56;;;;;;;4.60;4.20;;;22.60;99.90;;;;;;5052411;28;20404;-62
2021/07/29 08:09:22;;;;;;;4.27;3.87;;;22.80;99.90;;;;;;5052184;28;20844;-61
2021/07/29 08:11:48;;;;;;;3.97;3.57;;;23.10;99.90;;;;;;5052503;28;20159;-61
2021/07/29 08:14:14;;;;;;;4.27;3.33;;;23.20;99.90;;;;;;5052953;28;20190;-59
2021/07/29 08:16:39;;;;;;;3.50;3.20;;;23.20;99.90;;;;;;5056627;28;21008;-59
2021/07/29 08:19:05;;;;;;;5.80;3.40;;;23.30;99.90;;;;;;5056529;28;20186;-62
2021/07/29 08:21:31;;;;;;;4.33;3.80;;;23.20;99.90;;;;;;5057054;28;20166;-62
2021/07/29 08:23:57;;;;;;;7.57;3.83;;;23.40;99.90;;;;;;5056790;28;20827;-60
2021/07/29 08:26:22;;;;;;;6.53;3.87;;;23.60;99.90;;;;;;5055180;28;20269;-59
2021/07/29 08:28:51;;;;;;;3.83;2.97;;;23.70;99.90;;;;;;5056782;28;20229;-60
2021/07/29 08:31:17;;;;;;;4.83;3.50;;;23.60;99.90;;;;;;5056648;28;20207;-60
2021/07/29 08:33:43;;;;;;;6.80;3.67;;;23.80;99.90;;;;;;5056359;28;20455;-60
2021/07/29 08:36:27;;;;;;;5.97;3.73;;;23.80;99.90;;;;;;5056652;28;20918;-59
2021/07/29 08:38:52;;;;;;;3.70;3.40;;;23.80;99.90;;;;;;5056281;28;20241;-60
2021/07/29 08:41:19;;;;;;;3.80;3.50;;;23.80;99.90;;;;;;5056046;28;20443;-58
2021/07/29 08:43:46;;;;;;;3.87;3.47;;;24.20;99.90;;;;;;5056170;28;20178;-59
2021/07/29 08:46:18;;;;;;;5.97;3.50;;;24.10;99.90;;;;;;5056487;28;20449;-60
2021/07/29 08:48:48;;;;;;;4.80;3.87;;;24.30;99.90;;;;;;5054868;28;20451;-60
2021/07/29 08:51:20;;;;;;;4.43;3.60;;;24.30;99.90;;;;;;5056370;28;20389;-60
2021/07/29 08:53:48;;;;;;;4.30;3.90;;;24.20;99.90;;;;;;5056193;28;20803;-61
2021/07/29 08:56:14;;;;;;;4.17;3.87;;;24.10;99.90;;;;;;5055991;28;20405;-61
2021/07/29 08:58:41;;;;;;;4.27;3.87;;;23.90;99.90;;;;;;5055735;28;20782;-60
2021/07/29 09:01:12;;;;;;;4.90;4.00;;;23.90;99.90;;;;;;5055754;28;20249;-60
2021/07/29 09:03:39;;;;;;;5.23;4.73;;;23.90;99.90;;;;;;5055794;28;20421;-61
2021/07/29 09:06:12;;;;;;;4.27;3.63;;;24.20;99.90;;;;;;5055841;28;20419;-61
2021/07/29 09:08:49;;;;;;;6.07;4.20;;;24.30;99.90;;;;;;5055720;28;20436;-61
2021/07/29 09:11:36;;;;;;;9.90;3.70;;;24.40;99.90;;;;;;5055849;28;20393;-60
2021/07/29 09:14:13;;;;;;;5.63;4.03;;;24.40;99.90;;;;;;5055893;28;20480;-61
2021/07/29 09:17:01;;;;;;;11.43;4.73;;;24.60;99.90;;;;;;5069467;28;20420;-55
2021/07/29 09:19:39;;;;;;;5.17;3.87;;;24.70;99.90;;;;;;5075925;28;20391;-58
2021/07/29 09:22:20;;;;;;;6.13;4.17;;;24.60;99.70;;;;;;5073555;28;20800;-59
2021/07/29 09:25:11;;;;;;;4.67;4.03;;;24.70;98.70;;;;;;5054985;28;20404;-59
2021/07/29 09:27:39;;;;;;;4.20;3.80;;;24.80;99.70;;;;;;5055863;28;20425;-59
2021/07/29 09:30:20;;;;;;;5.70;3.80;;;24.90;99.10;;;;;;5056173;28;20433;-58
2021/07/29 09:32:59;;;;;;;5.10;4.20;;;25.20;99.30;;;;;;5067776;28;20983;-60
2021/07/29 09:35:42;;;;;;;4.30;3.90;;;25.10;99.10;;;;;;5055301;28;20928;-60
2021/07/29 09:38:27;;;;;;;4.47;3.73;;;24.90;98.40;;;;;;5055175;28;20452;-60
2021/07/29 09:41:15;;;;;;;4.17;3.83;;;24.50;98.30;;;;;;5054678;28;20398;-60
2021/07/29 09:43:41;;;;;;;4.17;3.77;;;24.20;98.60;;;;;;5054703;28;20479;-60
2021/07/29 09:46:18;;;;;;;4.77;3.57;;;24.20;99.10;;;;;;5054920;28;20401;-60
2021/07/29 09:48:45;;;;;;;4.53;3.70;;;24.20;99.70;;;;;;5054880;28;20425;-60
2021/07/29 09:51:11;;;;;;;3.97;3.60;;;24.10;98.70;;;;;;5054996;28;20413;-60
2021/07/29 09:53:38;;;;;;;4.03;3.63;;;24.20;99.90;;;;;;5055007;28;20840;-60
2021/07/29 09:56:08;;;;;;;4.63;4.20;;;24.10;99.00;;;;;;5054676;28;20500;-59
2021/07/29 09:58:36;;;;;;;4.53;3.90;;;23.80;98.80;;;;;;5054970;28;20566;-60
2021/07/29 10:01:03;;;;;;;5.27;3.90;;;23.70;98.90;;;;;;5055065;28;20409;-60
2021/07/29 10:03:30;;;;;;;4.20;3.63;;;23.60;98.50;;;;;;5055676;28;20405;-60
2021/07/29 10:06:01;;;;;;;4.57;4.17;;;23.60;99.30;;;;;;5055082;28;20413;-58
2021/07/29 10:08:34;;;;;;;3.90;3.60;;;23.80;98.90;;;;;;5054455;28;20966;-60
2021/07/29 10:11:01;;;;;;;5.33;3.83;;;23.90;98.80;;;;;;5066994;28;20498;-60
2021/07/29 10:13:37;;;;;;;6.23;5.63;;;24.40;99.30;;;;;;5074678;28;20459;-60
2021/07/29 10:16:14;;;;;;;5.07;4.57;;;24.40;98.50;;;;;;5074812;28;20769;-60
2021/07/29 10:18:53;;;;;;;4.33;3.93;;;24.60;99.20;;;;;;5074476;28;20505;-60
2021/07/29 10:21:35;;;;;;;5.07;4.60;;;24.60;97.40;;;;;;5074649;28;20419;-60
2021/07/29 10:24:01;;;;;;;6.73;4.20;;;24.60;98.30;;;;;;5056513;28;20429;-60
2021/07/29 10:26:32;;;;;;;4.67;4.07;;;24.70;97.80;;;;;;5054110;28;20410;-60
2021/07/29 10:29:20;;;;;;;4.90;3.63;;;24.90;98.70;;;;;;5054251;28;20429;-60
2021/07/29 10:31:54;;;;;;;5.10;4.60;;;24.90;97.90;;;;;;5053821;28;20453;-60
2021/07/29 10:34:30;;;;;;;5.07;4.53;;;24.90;97.50;;;;;;5053969;28;20469;-59
2021/07/29 10:37:01;;;;;;;5.10;4.57;;;25.10;97.30;;;;;;5053409;28;20397;-60
2021/07/29 10:39:27;;;;;;;8.43;4.50;;;25.30;97.30;;;;;;5054290;28;20473;-60
2021/07/29 10:41:56;;;;;;;5.23;4.60;;;25.50;96.50;;;;;;5053827;28;20401;-60
2021/07/29 10:44:48;;;;;;;6.87;4.57;;;25.40;97.60;;;;;;5054162;28;20774;-60
2021/07/29 10:47:14;;;;;;;5.30;4.27;;;25.70;97.90;;;;;;5048203;28;20429;-61
2021/07/29 10:49:46;;;;;;;4.43;4.10;;;25.90;95.10;;;;;;5054111;28;20409;-61
2021/07/29 10:52:13;;;;;;;4.70;4.30;;;26.00;94.60;;;;;;5054106;28;20419;-61
2021/07/29 10:54:44;;;;;;;4.80;4.40;;;26.00;94.90;;;;;;5051969;28;20449;-61
2021/07/29 10:57:11;;;;;;;4.93;4.10;;;26.00;96.20;;;;;;5054036;28;20471;-61
2021/07/29 10:59:37;;;;;;;4.63;4.20;;;26.20;95.20;;;;;;5053502;28;20411;-61
2021/07/29 11:02:23;;;;;;;4.30;3.90;;;26.10;94.40;;;;;;5054059;28;20928;-61
2021/07/29 11:04:58;;;;;;;5.17;4.67;;;26.00;94.50;;;;;;5053592;28;20389;-61
2021/07/29 11:07:25;;;;;;;4.93;4.53;;;26.00;95.20;;;;;;5053672;28;20916;-60
2021/07/29 11:10:10;;;;;;;4.57;4.07;;;26.00;94.40;;;;;;5056308;28;20404;-61
2021/07/29 11:12:39;;;;;;;5.90;4.70;;;26.00;95.20;;;;;;5073740;28;20419;-61
2021/07/29 11:15:05;;;;;;;5.40;4.40;;;26.00;94.70;;;;;;5073785;28;20408;-61
2021/07/29 11:17:31;;;;;;;4.93;4.43;;;26.20;94.20;;;;;;5073408;28;20450;-61
2021/07/29 11:19:57;;;;;;;4.97;4.40;;;26.10;92.80;;;;;;5073765;28;20405;-61
2021/07/29 11:22:23;;;;;;;5.00;4.50;;;26.30;94.50;;;;;;5069067;28;20181;-60
2021/07/29 11:24:48;;;;;;;7.03;4.37;;;26.40;93.70;;;;;;5053331;28;20166;-60
2021/07/29 11:27:14;;;;;;;4.73;4.23;;;26.70;94.30;;;;;;5076163;28;20201;-57
2021/07/29 11:29:53;;;;;;;5.23;4.50;;;27.40;91.70;;;;;;5070995;28;20444;-58
2021/07/29 11:32:21;;;;;;;4.07;3.67;;;28.80;91.20;;;;;;5073188;28;20416;-59
2021/07/29 11:34:55;;;;;;;4.93;4.43;;;30.40;87.90;;;;;;5073112;28;20967;-59
2021/07/29 11:37:21;;;;;;;4.50;4.10;;;31.50;85.30;;;;;;5073364;28;20795;-59
2021/07/29 11:39:47;;;;;;;3.97;3.67;;;31.90;78.10;;;;;;5072992;28;20405;-57
2021/07/29 11:42:13;;;;;;;4.03;3.63;;;31.70;79.10;;;;;;5072801;28;20514;-59
2021/07/29 11:44:44;;;;;;;4.90;4.50;;;32.30;74.40;;;;;;5073047;28;20177;-59
2021/07/29 11:47:10;;;;;;;6.93;4.83;;;31.50;74.30;;;;;;5073348;28;20538;-58
2021/07/29 11:49:50;;;;;;;3.90;3.60;;;30.40;75.70;;;;;;5073248;28;20766;-59
2021/07/29 11:52:18;;;;;;;4.30;3.80;;;29.60;79.40;;;;;;5069687;28;20432;-58
2021/07/29 11:54:44;;;;;;;5.50;4.00;;;29.10;80.70;;;;;;5051345;28;20461;-56
2021/07/29 11:57:10;;;;;;;5.60;3.77;;;29.40;77.40;;;;;;5052642;28;20527;-59
2021/07/29 11:59:37;;;;;;;4.70;4.37;;;29.70;78.70;;;;;;5052857;28;20623;-59
2021/07/29 12:02:04;;;;;;;7.47;3.97;;;30.20;77.10;;;;;;5052754;28;20411;-59
2021/07/29 12:04:34;;;;;;;4.73;4.17;;;30.30;75.30;;;;;;5052778;28;20431;-59
2021/07/29 12:07:01;;;;;;;4.00;3.70;;;31.50;73.30;;;;;;5052785;28;20408;-59
2021/07/29 12:09:28;;;;;;;6.13;4.17;;;30.60;74.00;;;;;;5066281;28;20793;-61
2021/07/29 12:11:54;;;;;;;5.20;4.13;;;30.10;76.00;;;;;;5072335;28;20458;-59
2021/07/29 12:14:22;;;;;;;4.47;4.10;;;28.90;77.80;;;;;;5072657;28;20512;-58
2021/07/29 12:16:50;;;;;;;4.73;4.33;;;28.70;82.30;;;;;;5072555;28;20909;-58
2021/07/29 12:19:16;;;;;;;4.50;4.10;;;29.00;79.60;;;;;;5072993;28;20411;-53
2021/07/29 12:21:42;;;;;;;4.53;4.10;;;28.60;79.60;;;;;;5073089;28;20446;-57
2021/07/29 12:24:08;;;;;;;4.70;4.30;;;28.40;79.40;;;;;;5053541;28;20502;-55
2021/07/29 12:26:33;;;;;;;6.03;5.10;;;28.20;83.60;;;;;;5058965;28;20177;-59
2021/07/29 12:28:59;;;;;;;4.40;4.00;;;28.80;81.20;;;;;;5072353;28;20303;-51
2021/07/29 12:31:29;;;;;;;4.20;3.90;;;30.20;75.90;;;;;;5072905;28;20537;-54
2021/07/29 12:34:03;;;;;;;7.33;3.90;;;30.50;76.50;;;;;;5072661;28;20181;-55
2021/07/29 12:36:42;;;;;;;4.50;4.00;;;31.60;72.00;;;;;;5072769;28;20810;-57
2021/07/29 12:39:08;;;;;;;4.93;3.70;;;33.60;68.70;;;;;;5072943;28;20412;-58
2021/07/29 12:41:36;;;;;;;4.50;4.10;;;34.00;68.30;;;;;;5073816;28;20471;-59
2021/07/29 12:44:28;;;;;;;4.17;3.80;;;33.70;68.40;;;;;;5073682;28;20400;-59
2021/07/29 12:47:10;;;;;;;4.53;3.90;;;32.80;67.70;;;;;;5072387;28;20421;-56
2021/07/29 12:49:39;;;;;;;4.03;3.57;;;32.50;68.00;;;;;;5079766;28;20423;-58
2021/07/29 12:52:18;;;;;;;4.70;4.30;;;33.40;66.40;;;;;;5075649;28;20408;-56